Time;durP1;ratioP1;P1;durP2;ratioP2;P2;SDS_P1;SDS_P2;PMS_P1;PMS_P2;Temp;Humidity;BMP_temperature;BMP_pressure;BME280_temperature;BME280_humidity;BME280_pressure;Samples;Min_cycle;Max_cycle;Signal;HPM_P1;HPM_P2
2022/06/15 00:00:24;;;;;;;9.77;3.50;;;;;;;;;;5048479;28;20602;-42
2022/06/15 00:02:50;;;;;;;7.87;3.13;;;;;;;;;;5048487;28;20213;-42
2022/06/15 00:05:16;;;;;;;10.20;3.50;;;;;;;;;;5051138;28;20293;-42
2022/06/15 00:07:42;;;;;;;4.90;3.33;;;;;;;;;;5045062;28;20790;-42
2022/06/15 00:10:08;;;;;;;6.63;3.20;;;;;;;;;;5047082;28;20588;-42
2022/06/15 00:12:37;;;;;;;7.70;3.60;;;;;;;;;;5052028;28;20186;-42
2022/06/15 00:15:04;;;;;;;8.20;3.17;;;;;;;;;;5048182;28;20195;-42
2022/06/15 00:17:30;;;;;;;5.37;3.23;;;;;;;;;;5064022;28;20710;-42
2022/06/15 00:19:57;;;;;;;7.20;3.57;;;;;;;;;;5050175;28;20370;-42
2022/06/15 00:22:23;;;;;;;6.93;3.57;;;;;;;;;;5055340;28;20178;-42
2022/06/15 00:24:49;;;;;;;7.60;3.57;;;;;;;;;;5051929;28;20175;-42
2022/06/15 00:27:16;;;;;;;5.07;2.80;;;;;;;;;;5051457;28;20266;-42
2022/06/15 00:29:42;;;;;;;7.60;3.30;;;;;;;;;;5059369;28;20618;-42
2022/06/15 00:32:08;;;;;;;4.77;3.03;;;;;;;;;;5055614;28;20613;-42
2022/06/15 00:34:34;;;;;;;5.30;3.70;;;;;;;;;;5052117;28;20551;-41
2022/06/15 00:37:01;;;;;;;8.50;3.90;;;;;;;;;;5055207;28;20179;-42
2022/06/15 00:39:27;;;;;;;4.97;3.60;;;;;;;;;;5056270;28;20228;-42
2022/06/15 00:41:53;;;;;;;8.00;3.50;;;;;;;;;;5052610;28;20179;-41
2022/06/15 00:44:19;;;;;;;5.17;3.40;;;;;;;;;;5052548;28;20380;-43
2022/06/15 00:47:08;;;;;;;8.40;3.40;;;;;;;;;;5054327;28;20219;-42
2022/06/15 00:49:41;;;;;;;6.10;3.37;;;;;;;;;;5055994;28;20707;-41
2022/06/15 00:52:15;;;;;;;8.83;4.00;;;;;;;;;;5054430;28;20563;-42
2022/06/15 00:54:42;;;;;;;5.57;3.67;;;;;;;;;;5052979;28;20203;-43
2022/06/15 00:57:08;;;;;;;6.60;3.87;;;;;;;;;;5056660;28;20654;-42
2022/06/15 00:59:36;;;;;;;6.13;3.70;;;;;;;;;;5054205;28;20274;-42
2022/06/15 01:02:02;;;;;;;7.47;3.80;;;;;;;;;;5052749;28;20182;-42
2022/06/15 01:04:39;;;;;;;6.73;3.60;;;;;;;;;;5052425;28;20182;-42
2022/06/15 01:07:10;;;;;;;7.00;3.87;;;;;;;;;;5056723;28;20452;-42
2022/06/15 01:09:38;;;;;;;8.07;4.27;;;;;;;;;;5050506;28;20175;-42
2022/06/15 01:12:10;;;;;;;6.13;4.20;;;;;;;;;;5051634;28;20570;-42
2022/06/15 01:14:36;;;;;;;5.67;3.63;;;;;;;;;;5053913;28;20253;-43
2022/06/15 01:17:23;;;;;;;7.40;4.00;;;;;;;;;;5052590;28;20228;-42
2022/06/15 01:19:52;;;;;;;12.67;4.83;;;;;;;;;;5038912;28;20180;-42
2022/06/15 01:22:30;;;;;;;6.67;4.43;;;;;;;;;;5052292;28;20180;-42
2022/06/15 01:24:56;;;;;;;11.13;4.77;;;;;;;;;;5050709;28;20175;-42
2022/06/15 01:27:22;;;;;;;7.80;4.73;;;;;;;;;;5053584;28;20175;-42
2022/06/15 01:30:08;;;;;;;8.13;4.87;;;;;;;;;;5071986;28;20172;-42
2022/06/15 01:32:43;;;;;;;8.97;4.80;;;;;;;;;;5028181;28;20210;-42
2022/06/15 01:35:28;;;;;;;7.40;4.77;;;;;;;;;;5055318;28;20266;-42
2022/06/15 01:38:03;;;;;;;10.37;5.50;;;;;;;;;;5056861;28;20534;-42
2022/06/15 01:40:33;;;;;;;12.10;5.90;;;;;;;;;;5054046;28;20253;-41
2022/06/15 01:43:03;;;;;;;8.70;5.00;;;;;;;;;;5050845;28;20251;-41
2022/06/15 01:45:32;;;;;;;9.17;5.17;;;;;;;;;;5052588;28;20202;-42
2022/06/15 01:48:00;;;;;;;6.83;4.57;;;;;;;;;;5054230;28;20210;-42
2022/06/15 01:50:32;;;;;;;7.80;5.47;;;;;;;;;;5050639;28;20183;-42
2022/06/15 01:53:28;;;;;;;5.87;4.47;;;;;;;;;;5052404;28;20633;-41
2022/06/15 01:55:57;;;;;;;10.43;5.33;;;;;;;;;;5046183;28;20328;-42
2022/06/15 01:58:25;;;;;;;9.53;5.37;;;;;;;;;;5051945;28;20179;-44
2022/06/15 02:00:58;;;;;;;8.57;5.03;;;;;;;;;;5051916;28;20282;-42
2022/06/15 02:03:27;;;;;;;7.97;5.13;;;;;;;;;;5056420;28;20635;-40
2022/06/15 02:06:23;;;;;;;9.87;4.87;;;;;;;;;;5052261;28;20179;-40
2022/06/15 02:08:52;;;;;;;7.10;4.80;;;;;;;;;;5045604;28;20833;-40
2022/06/15 02:11:21;;;;;;;6.23;5.40;;;;;;;;;;5051034;28;20179;-39
2022/06/15 02:13:57;;;;;;;5.87;4.50;;;;;;;;;;5054851;28;20175;-39
2022/06/15 02:16:26;;;;;;;10.33;4.77;;;;;;;;;;5064242;27;20472;-41
2022/06/15 02:18:53;;;;;;;6.13;4.57;;;;;;;;;;5050423;28;20286;-40
2022/06/15 02:21:21;;;;;;;7.73;4.53;;;;;;;;;;5054540;28;20244;-39
2022/06/15 02:23:49;;;;;;;8.73;5.37;;;;;;;;;;5052743;28;20179;-39
2022/06/15 02:26:16;;;;;;;8.50;5.27;;;;;;;;;;5047902;28;20178;-43
2022/06/15 02:28:45;;;;;;;10.17;6.13;;;;;;;;;;5051520;28;20178;-42
2022/06/15 02:31:12;;;;;;;11.27;5.90;;;;;;;;;;5055304;28;20699;-43
2022/06/15 02:33:39;;;;;;;9.33;5.73;;;;;;;;;;5048953;28;20288;-43
2022/06/15 02:36:05;;;;;;;11.37;6.77;;;;;;;;;;5050083;28;20307;-43
2022/06/15 02:38:32;;;;;;;13.00;6.33;;;;;;;;;;5053482;28;20175;-43
2022/06/15 02:40:59;;;;;;;9.30;6.50;;;;;;;;;;5048598;28;20257;-43
2022/06/15 02:43:29;;;;;;;11.90;6.27;;;;;;;;;;5049663;28;20212;-41
2022/06/15 02:45:58;;;;;;;9.10;5.90;;;;;;;;;;5056329;28;20596;-42
2022/06/15 02:48:24;;;;;;;7.97;5.70;;;;;;;;;;5053390;28;20581;-43
2022/06/15 02:51:03;;;;;;;9.87;6.40;;;;;;;;;;5049020;28;20283;-43
2022/06/15 02:53:31;;;;;;;11.53;6.20;;;;;;;;;;5051343;28;20203;-43
2022/06/15 02:55:58;;;;;;;11.97;7.00;;;;;;;;;;5053767;28;20195;-42
2022/06/15 02:58:29;;;;;;;14.40;7.30;;;;;;;;;;5050395;28;20178;-43
2022/06/15 03:00:56;;;;;;;13.67;7.53;;;;;;;;;;5047733;28;20248;-43
2022/06/15 03:03:23;;;;;;;9.57;8.50;;;;;;;;;;5050171;28;20631;-44
2022/06/15 03:05:50;;;;;;;12.10;7.10;;;;;;;;;;5054736;28;20441;-42
2022/06/15 03:08:17;;;;;;;11.80;7.50;;;;;;;;;;5050409;28;20178;-43
2022/06/15 03:10:43;;;;;;;13.80;8.90;;;;;;;;;;5048627;28;20524;-42
2022/06/15 03:13:09;;;;;;;14.67;9.73;;;;;;;;;;5051096;28;20252;-43
2022/06/15 03:15:35;;;;;;;15.37;10.13;;;;;;;;;;5051037;28;20650;-43
2022/06/15 03:18:02;;;;;;;10.63;8.70;;;;;;;;;;5049696;28;20175;-42
2022/06/15 03:20:28;;;;;;;13.70;8.97;;;;;;;;;;5052437;28;20285;-43
2022/06/15 03:22:54;;;;;;;13.17;8.30;;;;;;;;;;5048471;28;20637;-43
2022/06/15 03:25:20;;;;;;;17.83;11.57;;;;;;;;;;5047847;28;20264;-42
2022/06/15 03:27:46;;;;;;;13.07;10.87;;;;;;;;;;5051375;28;20654;-43
2022/06/15 03:30:13;;;;;;;12.43;10.17;;;;;;;;;;5052102;28;20311;-43
2022/06/15 03:32:39;;;;;;;17.50;11.10;;;;;;;;;;5047593;28;20175;-42
2022/06/15 03:35:05;;;;;;;10.77;9.53;;;;;;;;;;5045984;28;20196;-43
2022/06/15 03:37:32;;;;;;;11.57;9.07;;;;;;;;;;5051147;28;20186;-42
2022/06/15 03:39:58;;;;;;;12.93;8.57;;;;;;;;;;5046881;28;20167;-43
2022/06/15 03:42:25;;;;;;;13.03;9.63;;;;;;;;;;5047332;28;20172;-42
2022/06/15 03:44:53;;;;;;;13.80;10.40;;;;;;;;;;5048641;28;20591;-43
2022/06/15 03:47:20;;;;;;;12.27;9.03;;;;;;;;;;5052964;28;20206;-43
2022/06/15 03:49:49;;;;;;;13.60;8.97;;;;;;;;;;5049249;28;20477;-40
2022/06/15 03:52:19;;;;;;;10.73;8.60;;;;;;;;;;5051634;28;20339;-43
2022/06/15 03:54:45;;;;;;;17.43;9.40;;;;;;;;;;5051875;28;20427;-43
2022/06/15 03:57:12;;;;;;;16.83;11.07;;;;;;;;;;5051313;28;20223;-43
2022/06/15 03:59:39;;;;;;;12.13;9.03;;;;;;;;;;5049780;28;20174;-43
2022/06/15 04:02:05;;;;;;;13.97;10.20;;;;;;;;;;5051094;28;20452;-43
2022/06/15 04:04:31;;;;;;;11.47;9.57;;;;;;;;;;5051283;28;20178;-43
2022/06/15 04:06:57;;;;;;;15.47;10.10;;;;;;;;;;5047104;28;20218;-43
2022/06/15 04:09:23;;;;;;;10.53;9.03;;;;;;;;;;5047834;28;20647;-43
2022/06/15 04:12:08;;;;;;;10.03;8.97;;;;;;;;;;5054272;28;20665;-43
2022/06/15 04:14:35;;;;;;;13.80;10.00;;;;;;;;;;5046619;28;20332;-43
2022/06/15 04:17:01;;;;;;;10.30;8.53;;;;;;;;;;5046301;28;20187;-43
2022/06/15 04:19:29;;;;;;;14.37;9.43;;;;;;;;;;5052578;28;20192;-43
2022/06/15 04:21:55;;;;;;;12.70;9.20;;;;;;;;;;5048743;28;20259;-42
2022/06/15 04:24:22;;;;;;;14.20;8.07;;;;;;;;;;5046143;28;20171;-42
2022/06/15 04:26:49;;;;;;;12.37;8.87;;;;;;;;;;5050471;28;20705;-43
2022/06/15 04:29:15;;;;;;;11.57;8.70;;;;;;;;;;5049132;28;20860;-43
2022/06/15 04:31:41;;;;;;;14.70;11.50;;;;;;;;;;5047625;28;20179;-42
2022/06/15 04:34:09;;;;;;;13.27;9.30;;;;;;;;;;5052223;28;20225;-43
2022/06/15 04:36:36;;;;;;;13.37;9.70;;;;;;;;;;5046670;28;20203;-43
2022/06/15 04:39:02;;;;;;;17.77;10.43;;;;;;;;;;5050602;28;20777;-43
2022/06/15 04:41:28;;;;;;;13.43;10.50;;;;;;;;;;5047527;28;20939;-42
2022/06/15 04:43:55;;;;;;;12.80;9.77;;;;;;;;;;5045710;28;20186;-42
2022/06/15 04:46:21;;;;;;;14.87;10.17;;;;;;;;;;5046934;28;20745;-42
2022/06/15 04:48:47;;;;;;;12.33;8.57;;;;;;;;;;5050472;28;20212;-43
2022/06/15 04:51:20;;;;;;;13.20;9.13;;;;;;;;;;5050549;28;20211;-43
2022/06/15 04:53:46;;;;;;;16.50;9.53;;;;;;;;;;5045486;28;20283;-43
2022/06/15 04:56:12;;;;;;;10.77;8.30;;;;;;;;;;5050645;28;20206;-43
2022/06/15 04:58:40;;;;;;;11.83;8.50;;;;;;;;;;5051304;28;20196;-42
2022/06/15 05:01:07;;;;;;;9.53;7.33;;;;;;;;;;5046819;28;20248;-43
2022/06/15 05:03:36;;;;;;;8.87;7.83;;;;;;;;;;5048580;28;20737;-43
2022/06/15 05:06:07;;;;;;;12.20;8.70;;;;;;;;;;5051450;28;21450;-43
2022/06/15 05:08:33;;;;;;;13.90;8.33;;;;;;;;;;5049814;28;20183;-43
2022/06/15 05:11:00;;;;;;;11.87;8.70;;;;;;;;;;5051391;28;20626;-43
2022/06/15 05:13:27;;;;;;;10.83;9.20;;;;;;;;;;5051433;28;20269;-43
2022/06/15 05:15:53;;;;;;;11.17;8.63;;;;;;;;;;5053175;28;20265;-43
2022/06/15 05:18:19;;;;;;;14.00;10.03;;;;;;;;;;5050536;28;20278;-43
2022/06/15 05:20:45;;;;;;;10.27;9.03;;;;;;;;;;5050851;28;20686;-43
2022/06/15 05:23:15;;;;;;;14.00;10.57;;;;;;;;;;5053242;28;20186;-42
2022/06/15 05:25:41;;;;;;;14.57;11.00;;;;;;;;;;5052418;28;20167;-43
2022/06/15 05:28:08;;;;;;;13.30;9.73;;;;;;;;;;5050325;28;20184;-43
2022/06/15 05:30:34;;;;;;;12.30;9.63;;;;;;;;;;5051970;28;20779;-43
2022/06/15 05:33:00;;;;;;;18.63;11.07;;;;;;;;;;5054916;28;20660;-43
2022/06/15 05:35:26;;;;;;;13.80;10.23;;;;;;;;;;5050329;28;20769;-43
2022/06/15 05:37:52;;;;;;;14.70;10.27;;;;;;;;;;5053937;28;20718;-43
2022/06/15 05:40:18;;;;;;;13.67;10.13;;;;;;;;;;5054938;28;20840;-43
2022/06/15 05:42:44;;;;;;;16.87;9.73;;;;;;;;;;5050792;28;20179;-43
2022/06/15 05:45:11;;;;;;;17.37;10.73;;;;;;;;;;5053341;28;20194;-43
2022/06/15 05:47:37;;;;;;;15.43;10.93;;;;;;;;;;5057211;28;20208;-44
2022/06/15 05:50:04;;;;;;;17.07;11.03;;;;;;;;;;5050997;28;20424;-43
2022/06/15 05:52:30;;;;;;;15.23;11.10;;;;;;;;;;5051782;28;20736;-43
2022/06/15 05:54:58;;;;;;;16.40;11.40;;;;;;;;;;5054811;28;20806;-41
2022/06/15 05:57:25;;;;;;;15.77;11.53;;;;;;;;;;5055521;28;20663;-40
2022/06/15 05:59:51;;;;;;;14.37;11.20;;;;;;;;;;5059026;28;21031;-41
2022/06/15 06:02:18;;;;;;;15.73;11.67;;;;;;;;;;5062359;28;20628;-39
2022/06/15 06:04:45;;;;;;;15.77;10.63;;;;;;;;;;5064143;28;20178;-41
2022/06/15 06:07:11;;;;;;;13.57;10.63;;;;;;;;;;5060404;28;20182;-43
2022/06/15 06:09:37;;;;;;;18.47;11.50;;;;;;;;;;5063026;28;20179;-43
2022/06/15 06:12:04;;;;;;;15.80;10.90;;;;;;;;;;5060874;28;20179;-43
2022/06/15 06:14:30;;;;;;;13.67;9.40;;;;;;;;;;5061728;28;20209;-42
2022/06/15 06:16:56;;;;;;;15.80;10.60;;;;;;;;;;5062204;28;20292;-43
2022/06/15 06:19:22;;;;;;;16.97;11.70;;;;;;;;;;5064734;28;20181;-44
2022/06/15 06:21:48;;;;;;;13.37;10.30;;;;;;;;;;5061106;28;20179;-43
2022/06/15 06:24:14;;;;;;;16.20;10.73;;;;;;;;;;5060934;28;20451;-44
2022/06/15 06:26:42;;;;;;;16.57;14.30;;;;;;;;;;5058200;28;20289;-43
2022/06/15 06:29:11;;;;;;;16.33;12.67;;;;;;;;;;5051333;28;20237;-43
2022/06/15 06:31:37;;;;;;;16.77;12.27;;;;;;;;;;5057408;28;20178;-43
2022/06/15 06:34:04;;;;;;;16.13;11.23;;;;;;;;;;5060539;28;20218;-42
2022/06/15 06:36:30;;;;;;;14.53;10.60;;;;;;;;;;5058167;28;20424;-41
2022/06/15 06:38:56;;;;;;;17.60;9.30;;;;;;;;;;5062681;28;20273;-41
2022/06/15 06:41:24;;;;;;;16.80;11.17;;;;;;;;;;5059898;28;20566;-42
2022/06/15 06:43:50;;;;;;;15.20;10.70;;;;;;;;;;5059625;28;20480;-41
2022/06/15 06:46:16;;;;;;;13.77;10.13;;;;;;;;;;5060150;28;20170;-42
2022/06/15 06:48:42;;;;;;;11.90;8.80;;;;;;;;;;5059502;28;20185;-42
2022/06/15 06:51:08;;;;;;;13.57;9.73;;;;;;;;;;5053468;28;21124;-41
2022/06/15 06:53:35;;;;;;;12.60;9.00;;;;;;;;;;5054232;28;20448;-41
2022/06/15 06:56:03;;;;;;;13.87;9.97;;;;;;;;;;5059111;28;20227;-42
2022/06/15 06:58:29;;;;;;;14.57;9.00;;;;;;;;;;5057966;28;20985;-41
2022/06/15 07:00:55;;;;;;;11.93;9.07;;;;;;;;;;5056408;28;20252;-42
2022/06/15 07:03:23;;;;;;;12.00;8.30;;;;;;;;;;5062850;28;20617;-43
2022/06/15 07:05:49;;;;;;;12.47;9.17;;;;;;;;;;5059342;28;20185;-43
2022/06/15 07:08:15;;;;;;;12.50;8.87;;;;;;;;;;5059418;28;21055;-41
2022/06/15 07:10:42;;;;;;;11.40;9.03;;;;;;;;;;5063266;28;20590;-43
2022/06/15 07:13:08;;;;;;;12.50;9.87;;;;;;;;;;5059292;28;20256;-41
2022/06/15 07:15:35;;;;;;;14.93;8.87;;;;;;;;;;5063091;28;20234;-43
2022/06/15 07:18:01;;;;;;;13.33;8.60;;;;;;;;;;5061389;28;20179;-42
2022/06/15 07:20:29;;;;;;;15.40;9.77;;;;;;;;;;5054995;28;20179;-43
2022/06/15 07:22:55;;;;;;;11.63;8.70;;;;;;;;;;5059335;28;20294;-41
2022/06/15 07:25:22;;;;;;;12.30;9.27;;;;;;;;;;5057642;28;20468;-43
2022/06/15 07:27:48;;;;;;;15.20;9.37;;;;;;;;;;5065085;28;20187;-43
2022/06/15 07:30:16;;;;;;;16.27;9.83;;;;;;;;;;5061037;28;20562;-43
2022/06/15 07:32:43;;;;;;;12.57;9.20;;;;;;;;;;5056482;28;20973;-41
2022/06/15 07:35:29;;;;;;;12.80;9.63;;;;;;;;;;5055744;28;20206;-43
2022/06/15 07:37:55;;;;;;;11.97;10.27;;;;;;;;;;5060920;28;20178;-42
2022/06/15 07:40:23;;;;;;;14.33;11.13;;;;;;;;;;5054283;28;20174;-43
2022/06/15 07:42:50;;;;;;;12.87;9.73;;;;;;;;;;5061627;28;20175;-42
2022/06/15 07:45:18;;;;;;;13.03;10.10;;;;;;;;;;5061685;28;20397;-43
2022/06/15 07:50:29;;;;;;;15.67;9.57;;;;;;;;;;5060118;28;20831;-44
2022/06/15 07:52:56;;;;;;;12.17;9.00;;;;;;;;;;5061316;28;20191;-42
2022/06/15 07:55:25;;;;;;;13.03;9.83;;;;;;;;;;5063573;28;20237;-43
2022/06/15 07:57:51;;;;;;;16.43;10.33;;;;;;;;;;5054676;28;20637;-43
2022/06/15 08:00:18;;;;;;;15.27;9.90;;;;;;;;;;5057817;28;20181;-43
2022/06/15 08:02:44;;;;;;;12.07;9.20;;;;;;;;;;5060474;28;20281;-43
2022/06/15 08:05:10;;;;;;;15.73;11.03;;;;;;;;;;5062001;28;20234;-41
2022/06/15 08:07:36;;;;;;;11.73;9.03;;;;;;;;;;5059398;28;20278;-43
2022/06/15 08:10:03;;;;;;;19.50;10.17;;;;;;;;;;5061224;28;20222;-43
2022/06/15 08:12:29;;;;;;;12.97;9.87;;;;;;;;;;5062599;28;20298;-43
2022/06/15 08:14:57;;;;;;;10.33;9.20;;;;;;;;;;5061115;28;20544;-41
2022/06/15 08:17:27;;;;;;;15.90;8.37;;;;;;;;;;5055908;28;20208;-43
2022/06/15 08:20:02;;;;;;;11.73;8.20;;;;;;;;;;5061513;28;20178;-43
2022/06/15 08:22:29;;;;;;;12.87;8.90;;;;;;;;;;5055892;28;20362;-42
2022/06/15 08:24:56;;;;;;;10.33;7.93;;;;;;;;;;5057069;28;20463;-41
2022/06/15 08:27:23;;;;;;;12.00;8.93;;;;;;;;;;5073118;28;20294;-43
2022/06/15 08:29:49;;;;;;;10.63;8.20;;;;;;;;;;5058616;28;20167;-43
2022/06/15 08:32:16;;;;;;;11.37;9.20;;;;;;;;;;5058114;28;20741;-43
2022/06/15 08:34:42;;;;;;;13.63;8.97;;;;;;;;;;5061602;28;20177;-42
2022/06/15 08:37:10;;;;;;;13.20;8.67;;;;;;;;;;5063779;28;20177;-42
2022/06/15 08:39:37;;;;;;;13.93;8.33;;;;;;;;;;5062099;28;20359;-42
2022/06/15 08:42:09;;;;;;;15.30;8.90;;;;;;;;;;5064686;28;20225;-43
2022/06/15 08:44:54;;;;;;;12.67;8.53;;;;;;;;;;5063935;28;20179;-43
2022/06/15 08:47:32;;;;;;;13.33;8.53;;;;;;;;;;5063955;28;20336;-41
2022/06/15 08:50:08;;;;;;;14.73;9.93;;;;;;;;;;5058232;28;20214;-43
2022/06/15 08:52:43;;;;;;;19.47;10.63;;;;;;;;;;5053471;28;20201;-43
2022/06/15 08:55:09;;;;;;;12.67;8.93;;;;;;;;;;5056732;28;20544;-41
2022/06/15 08:57:53;;;;;;;13.60;9.43;;;;;;;;;;5057476;28;20206;-43
2022/06/15 09:00:26;;;;;;;10.90;9.57;;;;;;;;;;5056238;28;20499;-42
2022/06/15 09:03:08;;;;;;;13.60;8.87;;;;;;;;;;5050020;28;20492;-42
2022/06/15 09:05:49;;;;;;;13.60;8.90;;;;;;;;;;5055012;28;20408;-43
2022/06/15 09:08:35;;;;;;;11.97;7.63;;;;;;;;;;5056420;28;20550;-41
2022/06/15 09:11:37;;;;;;;11.60;7.70;;;;;;;;;;5033570;28;20274;-42
2022/06/15 09:14:21;;;;;;;11.23;8.00;;;;;;;;;;5014141;28;20596;-41
2022/06/15 09:16:56;;;;;;;11.70;7.97;;;;;;;;;;5053598;28;20222;-43
2022/06/15 09:19:45;;;;;;;12.80;7.73;;;;;;;;;;5052471;28;20837;-42
2022/06/15 09:22:16;;;;;;;14.53;8.80;;;;;;;;;;5051448;28;20187;-43
2022/06/15 09:24:51;;;;;;;13.13;8.50;;;;;;;;;;5053432;28;20175;-43
2022/06/15 09:27:23;;;;;;;10.67;7.53;;;;;;;;;;5054756;28;21238;-42
2022/06/15 09:30:02;;;;;;;12.60;8.30;;;;;;;;;;5055077;28;20178;-43
2022/06/15 09:32:32;;;;;;;12.57;8.53;;;;;;;;;;5059965;28;20186;-43
2022/06/15 09:35:10;;;;;;;11.47;8.77;;;;;;;;;;5052145;28;20392;-43
2022/06/15 09:37:40;;;;;;;13.07;8.20;;;;;;;;;;5056094;28;20644;-44
2022/06/15 09:40:06;;;;;;;14.47;8.40;;;;;;;;;;5055195;28;20202;-42
2022/06/15 09:42:32;;;;;;;13.20;7.60;;;;;;;;;;5052319;28;20182;-43
2022/06/15 09:45:10;;;;;;;13.67;7.57;;;;;;;;;;5052069;28;20449;-42
2022/06/15 09:47:36;;;;;;;8.77;6.60;;;;;;;;;;5051816;28;20185;-42
2022/06/15 09:50:12;;;;;;;8.97;6.40;;;;;;;;;;5054062;28;20791;-43
2022/06/15 09:52:55;;;;;;;13.63;6.00;;;;;;;;;;5052397;28;20650;-42
2022/06/15 09:55:24;;;;;;;8.87;6.37;;;;;;;;;;5052995;28;20722;-43
2022/06/15 09:57:51;;;;;;;10.87;6.60;;;;;;;;;;5050989;28;20754;-43
2022/06/15 10:00:18;;;;;;;12.30;6.47;;;;;;;;;;5053439;28;20190;-43
2022/06/15 10:02:46;;;;;;;12.37;7.40;;;;;;;;;;5053073;28;20184;-43
2022/06/15 10:05:19;;;;;;;13.80;7.40;;;;;;;;;;5052067;28;20562;-41
2022/06/15 10:07:45;;;;;;;12.53;7.50;;;;;;;;;;5052634;28;20499;-43
2022/06/15 10:10:23;;;;;;;11.10;7.13;;;;;;;;;;5052021;28;20685;-43
2022/06/15 10:13:02;;;;;;;9.57;6.40;;;;;;;;;;5051891;28;20234;-43
2022/06/15 10:15:33;;;;;;;8.60;5.73;;;;;;;;;;5051770;28;20298;-43
2022/06/15 10:18:15;;;;;;;10.00;5.20;;;;;;;;;;5055575;28;20189;-44
2022/06/15 10:20:41;;;;;;;11.13;5.87;;;;;;;;;;5053906;28;20178;-43
2022/06/15 10:23:18;;;;;;;7.87;5.90;;;;;;;;;;5051502;28;20741;-42
2022/06/15 10:25:49;;;;;;;14.07;5.87;;;;;;;;;;5055048;28;20179;-44
2022/06/15 10:28:17;;;;;;;11.80;5.70;;;;;;;;;;5059279;28;20176;-43
2022/06/15 10:30:57;;;;;;;11.37;6.50;;;;;;;;;;5047472;28;20179;-43
2022/06/15 10:33:24;;;;;;;11.53;5.83;;;;;;;;;;5054003;28;20674;-43
2022/06/15 10:35:57;;;;;;;8.73;6.20;;;;;;;;;;5057170;28;20678;-43
2022/06/15 10:38:25;;;;;;;9.97;5.50;;;;;;;;;;5066463;27;20734;-43
2022/06/15 10:43:47;;;;;;;8.83;5.33;;;;;;;;;;5054798;28;20273;-43
2022/06/15 10:46:15;;;;;;;19.53;5.97;;;;;;;;;;5052993;28;20183;-42
2022/06/15 10:48:54;;;;;;;9.37;5.60;;;;;;;;;;5051938;28;20184;-43
2022/06/15 10:51:37;;;;;;;9.47;5.50;;;;;;;;;;5053587;28;20294;-42
2022/06/15 10:54:21;;;;;;;7.87;5.20;;;;;;;;;;5053792;28;20175;-42
2022/06/15 11:02:40;;;;;;;7.20;5.13;;;;;;;;;;5054394;28;20221;-42
2022/06/15 11:05:06;;;;;;;9.43;4.90;;;;;;;;;;5050197;28;20179;-41
2022/06/15 11:07:35;;;;;;;11.83;5.50;;;;;;;;;;5053218;28;20176;-42
2022/06/15 11:10:11;;;;;;;10.03;5.03;;;;;;;;;;5053911;28;20172;-42
2022/06/15 11:12:46;;;;;;;11.27;4.83;;;;;;;;;;5054432;28;20448;-42
2022/06/15 11:15:15;;;;;;;9.60;5.23;;;;;;;;;;5050423;28;20284;-42
2022/06/15 11:18:05;;;;;;;7.03;4.70;;;;;;;;;;5050060;28;20168;-42
2022/06/15 11:20:43;;;;;;;6.77;4.70;;;;;;;;;;5053333;28;20536;-42
2022/06/15 11:23:28;;;;;;;7.27;4.70;;;;;;;;;;5050910;28;20214;-42
2022/06/15 11:25:54;;;;;;;8.77;4.80;;;;;;;;;;5052402;28;20178;-42
2022/06/15 11:28:24;;;;;;;7.40;4.50;;;;;;;;;;5053971;28;21008;-43
2022/06/15 11:30:58;;;;;;;7.23;4.73;;;;;;;;;;5051149;28;20765;-43
2022/06/15 11:33:43;;;;;;;12.90;4.87;;;;;;;;;;5051352;28;20277;-42
2022/06/15 11:36:15;;;;;;;7.73;4.30;;;;;;;;;;5054636;28;20204;-41
2022/06/15 11:38:45;;;;;;;8.00;4.60;;;;;;;;;;5053290;28;20171;-42
2022/06/15 11:41:12;;;;;;;8.97;4.40;;;;;;;;;;5047749;28;20172;-41
2022/06/15 11:43:41;;;;;;;6.00;4.33;;;;;;;;;;5051891;28;20172;-42
2022/06/15 11:46:26;;;;;;;6.60;4.30;;;;;;;;;;5051250;28;20545;-40
2022/06/15 11:49:10;;;;;;;10.27;4.60;;;;;;;;;;5047652;28;20181;-42
2022/06/15 11:51:39;;;;;;;6.17;4.53;;;;;;;;;;5050108;28;20288;-43
2022/06/15 11:54:18;;;;;;;9.83;4.77;;;;;;;;;;5062360;28;20194;-41
2022/06/15 11:56:59;;;;;;;8.80;4.80;;;;;;;;;;5062106;28;20457;-42
2022/06/15 11:59:34;;;;;;;8.03;4.60;;;;;;;;;;5054612;28;20429;-43
2022/06/15 12:02:04;;;;;;;5.43;4.40;;;;;;;;;;5054558;28;20169;-41
2022/06/15 12:04:36;;;;;;;9.53;4.77;;;;;;;;;;5050923;28;20230;-42
2022/06/15 12:07:20;;;;;;;10.57;4.90;;;;;;;;;;5051458;28;20176;-42
2022/06/15 12:09:56;;;;;;;11.67;4.90;;;;;;;;;;5051414;28;20225;-41
2022/06/15 12:15:06;;;;;;;8.77;4.87;;;;;;;;;;5051194;28;20257;-40
2022/06/15 12:17:45;;;;;;;10.83;4.63;;;;;;;;;;5051516;28;20302;-43
2022/06/15 12:20:20;;;;;;;8.83;4.23;;;;;;;;;;5056245;28;20211;-42
2022/06/15 12:22:58;;;;;;;5.67;4.33;;;;;;;;;;5059319;28;20254;-41
2022/06/15 12:25:33;;;;;;;7.90;4.93;;;;;;;;;;5053865;28;20709;-41
2022/06/15 12:27:59;;;;;;;5.97;4.50;;;;;;;;;;5052900;28;20187;-42
2022/06/15 12:30:41;;;;;;;7.13;4.60;;;;;;;;;;5056603;28;20243;-41
2022/06/15 12:33:26;;;;;;;8.80;4.80;;;;;;;;;;5055625;28;20566;-42
2022/06/15 12:35:58;;;;;;;7.47;4.40;;;;;;;;;;5056037;28;20195;-42
2022/06/15 12:38:53;;;;;;;8.90;4.67;;;;;;;;;;5059137;28;20583;-42
2022/06/15 12:44:13;;;;;;;9.90;4.40;;;;;;;;;;5056850;28;20653;-42
2022/06/15 12:46:39;;;;;;;6.17;4.77;;;;;;;;;;5056351;28;20504;-40
2022/06/15 12:49:14;;;;;;;8.67;4.97;;;;;;;;;;5057043;28;20218;-42
2022/06/15 12:51:43;;;;;;;8.53;4.67;;;;;;;;;;5059377;28;20290;-41
2022/06/15 12:54:12;;;;;;;5.97;4.83;;;;;;;;;;5053326;28;20179;-41
2022/06/15 12:56:38;;;;;;;10.30;4.90;;;;;;;;;;5055772;28;20488;-42
2022/06/15 12:59:13;;;;;;;8.67;5.13;;;;;;;;;;5059407;28;20349;-42
2022/06/15 13:01:43;;;;;;;4.87;4.33;;;;;;;;;;5053903;28;20445;-42
2022/06/15 13:04:28;;;;;;;9.00;5.10;;;;;;;;;;5053211;28;20610;-42
2022/06/15 13:07:13;;;;;;;8.30;4.40;;;;;;;;;;5070724;27;20376;-41
2022/06/15 13:09:39;;;;;;;6.33;4.77;;;;;;;;;;5051824;28;20206;-42
2022/06/15 13:12:05;;;;;;;7.60;5.10;;;;;;;;;;5053403;28;20309;-42
2022/06/15 13:14:31;;;;;;;8.57;4.57;;;;;;;;;;5055126;28;20205;-41
2022/06/15 13:17:07;;;;;;;5.97;4.20;;;;;;;;;;5054192;28;20464;-42
2022/06/15 13:19:41;;;;;;;7.03;4.90;;;;;;;;;;5053571;28;20171;-42
2022/06/15 13:22:12;;;;;;;6.57;4.40;;;;;;;;;;5065558;28;20186;-43
2022/06/15 13:24:57;;;;;;;9.50;4.93;;;;;;;;;;5055291;28;20182;-41
2022/06/15 13:27:33;;;;;;;8.50;4.77;;;;;;;;;;5052201;28;20176;-42
2022/06/15 13:30:13;;;;;;;9.40;4.57;;;;;;;;;;5057835;28;20237;-42
2022/06/15 13:32:50;;;;;;;8.07;4.70;;;;;;;;;;5057264;28;20301;-42
2022/06/15 13:35:23;;;;;;;11.30;5.23;;;;;;;;;;5051846;28;20512;-43
2022/06/15 13:37:56;;;;;;;9.80;4.80;;;;;;;;;;5054255;28;20252;-42
2022/06/15 13:40:23;;;;;;;8.30;4.80;;;;;;;;;;5053272;28;20200;-40
2022/06/15 13:42:52;;;;;;;8.13;4.70;;;;;;;;;;5051018;28;20239;-42
2022/06/15 13:45:22;;;;;;;10.47;5.07;;;;;;;;;;5049212;28;20211;-42
2022/06/15 13:48:14;;;;;;;6.50;4.77;;;;;;;;;;5054504;28;20586;-41
2022/06/15 13:50:41;;;;;;;8.13;4.50;;;;;;;;;;5053885;28;20298;-41
2022/06/15 13:53:12;;;;;;;8.90;4.47;;;;;;;;;;5050902;28;20334;-41
2022/06/15 13:55:54;;;;;;;13.07;4.93;;;;;;;;;;5056005;28;20195;-42
2022/06/15 13:58:35;;;;;;;11.23;5.37;;;;;;;;;;5054156;28;20377;-41
2022/06/15 14:01:02;;;;;;;8.43;5.10;;;;;;;;;;5052794;28;20655;-42
2022/06/15 14:03:46;;;;;;;5.40;4.60;;;;;;;;;;5052911;28;20660;-42
2022/06/15 14:06:23;;;;;;;7.63;4.63;;;;;;;;;;5052104;28;20736;-42
2022/06/15 14:09:04;;;;;;;7.87;4.60;;;;;;;;;;5052558;28;20175;-42
2022/06/15 14:11:33;;;;;;;7.43;4.87;;;;;;;;;;5055438;28;20186;-42
2022/06/15 14:14:14;;;;;;;5.20;4.70;;;;;;;;;;5051808;28;20190;-41
2022/06/15 14:16:58;;;;;;;6.53;4.57;;;;;;;;;;5055606;28;20606;-41
2022/06/15 14:19:30;;;;;;;4.83;4.30;;;;;;;;;;5052406;28;20440;-42
2022/06/15 14:22:02;;;;;;;9.70;4.90;;;;;;;;;;5053269;28;20200;-42
2022/06/15 14:24:29;;;;;;;6.60;4.60;;;;;;;;;;5052564;28;20731;-42
2022/06/15 14:26:58;;;;;;;7.80;4.33;;;;;;;;;;5054346;28;20735;-42
2022/06/15 14:29:25;;;;;;;8.97;4.70;;;;;;;;;;5053702;28;20610;-42
2022/06/15 14:31:58;;;;;;;5.73;4.50;;;;;;;;;;5054210;28;20886;-42
2022/06/15 14:34:25;;;;;;;6.30;4.40;;;;;;;;;;5053966;28;20180;-42
2022/06/15 14:36:56;;;;;;;6.47;4.40;;;;;;;;;;5053092;28;20193;-42
2022/06/15 14:39:27;;;;;;;8.30;4.70;;;;;;;;;;5068033;27;20594;-42
2022/06/15 14:42:12;;;;;;;5.77;4.47;;;;;;;;;;5057099;28;20171;-42
2022/06/15 14:44:39;;;;;;;5.70;4.40;;;;;;;;;;5053436;28;20183;-42
2022/06/15 14:47:07;;;;;;;6.20;4.73;;;;;;;;;;5054497;28;20258;-42
2022/06/15 14:49:35;;;;;;;13.60;4.57;;;;;;;;;;5054422;28;20626;-42
2022/06/15 14:52:21;;;;;;;9.23;4.67;;;;;;;;;;5051884;28;20179;-42
2022/06/15 14:54:49;;;;;;;7.80;4.43;;;;;;;;;;5042819;28;20183;-42
2022/06/15 14:57:26;;;;;;;6.17;4.60;;;;;;;;;;5054891;28;20202;-42
2022/06/15 14:59:54;;;;;;;8.00;5.03;;;;;;;;;;5054653;28;20171;-41
2022/06/15 15:02:21;;;;;;;6.60;5.20;;;;;;;;;;5050745;28;20210;-41
2022/06/15 15:04:49;;;;;;;7.03;5.03;;;;;;;;;;5054664;28;20504;-42
2022/06/15 15:10:22;;;;;;;7.00;4.73;;;;;;;;;;5050921;28;20544;-40
2022/06/15 15:12:49;;;;;;;9.00;4.67;;;;;;;;;;5052651;28;20182;-41